createdAt,value
2019-02-27T00:00:17.351Z,51.10
2019-02-27T00:01:17.611Z,51.30
2019-02-27T00:02:17.315Z,52.30
2019-02-27T00:03:17.333Z,51.20
2019-02-27T00:04:17.291Z,53.20
2019-02-27T00:05:17.292Z,53.00
2019-02-27T00:06:17.273Z,52.20
2019-02-27T00:07:20.804Z,52.10
2019-02-27T00:08:17.350Z,54.20
2019-02-27T00:09:17.241Z,53.00
2019-02-27T00:10:17.237Z,53.80
2019-02-27T00:11:17.260Z,52.70
2019-02-27T00:12:19.366Z,51.40
2019-02-27T00:13:17.223Z,50.10
2019-02-27T00:14:17.187Z,50.70
2019-02-27T00:15:17.175Z,49.70
2019-02-27T00:16:17.169Z,51.60
2019-02-27T00:17:18.215Z,51.60
2019-02-27T00:18:17.160Z,52.60
2019-02-27T00:19:17.125Z,49.70
2019-02-27T00:20:17.112Z,50.20
2019-02-27T00:21:17.107Z,52.30
2019-02-27T00:22:17.639Z,51.30
2019-02-27T00:23:17.099Z,51.50
2019-02-27T00:24:17.091Z,54.70
2019-02-27T00:25:17.061Z,52.50
2019-02-27T00:26:17.047Z,52.60
2019-02-27T00:27:17.050Z,53.10
2019-02-27T00:28:17.043Z,53.70
2019-02-27T00:29:17.030Z,51.30
2019-02-27T00:30:16.998Z,54.00
2019-02-27T00:31:16.989Z,52.50
2019-02-27T00:32:18.659Z,49.60
2019-02-27T00:33:16.985Z,51.90
2019-02-27T00:34:16.971Z,49.50
2019-02-27T00:35:16.954Z,49.50
2019-02-27T00:36:16.935Z,50.50
2019-02-27T00:37:19.037Z,52.20
2019-02-27T00:38:16.926Z,51.50
2019-02-27T00:39:16.921Z,52.10
2019-02-27T00:40:16.900Z,51.60
2019-02-27T00:41:16.887Z,53.40
2019-02-27T00:42:19.509Z,52.10
2019-02-27T00:43:16.879Z,52.90
2019-02-27T00:44:16.848Z,53.90
2019-02-27T00:45:16.847Z,54.90
2019-02-27T00:46:16.830Z,52.30
2019-02-27T00:47:17.054Z,54.90
2019-02-27T00:48:16.804Z,54.90
2019-02-27T00:49:16.802Z,54.20
2019-02-27T00:50:16.778Z,52.40
2019-02-27T00:51:16.766Z,54.60
2019-02-27T00:52:18.389Z,52.90
2019-02-27T00:53:16.742Z,52.50
2019-02-27T00:54:16.748Z,53.20
2019-02-27T00:55:16.732Z,51.30
2019-02-27T00:56:16.718Z,52.70
2019-02-27T00:57:20.589Z,54.50
2019-02-27T00:58:16.704Z,53.40
2019-02-27T00:59:16.688Z,55.20
2019-02-27T01:00:16.659Z,51.60
2019-02-27T01:01:16.654Z,50.80
2019-02-27T01:02:19.973Z,52.10
2019-02-27T01:03:16.641Z,51.70
2019-02-27T01:04:16.643Z,51.10
2019-02-27T01:05:16.625Z,51.50
2019-02-27T01:06:16.650Z,53.10
2019-02-27T01:07:20.234Z,51.10
2019-02-27T01:08:16.594Z,52.20
2019-02-27T01:09:16.597Z,53.20
2019-02-27T01:10:16.557Z,51.10
2019-02-27T01:11:18.397Z,50.80
2019-02-27T01:12:16.536Z,51.70
2019-02-27T01:13:16.516Z,51.20
2019-02-27T01:14:16.530Z,51.70
2019-02-27T01:15:16.501Z,52.50
2019-02-27T01:16:17.260Z,53.60
2019-02-27T01:17:16.481Z,55.30
2019-02-27T01:18:16.478Z,54.60
2019-02-27T01:19:16.500Z,53.90
2019-02-27T01:20:16.475Z,54.40
2019-02-27T01:21:19.187Z,53.90
2019-02-27T01:22:16.423Z,52.70
2019-02-27T01:23:16.410Z,54.10
2019-02-27T01:24:17.416Z,52.30
2019-02-27T01:25:16.408Z,51.50
2019-02-27T01:26:16.380Z,51.20
2019-02-27T01:27:16.378Z,50.30
2019-02-27T01:28:16.373Z,51.90
2019-02-27T01:29:18.105Z,53.10
2019-02-27T01:30:16.331Z,53.60
2019-02-27T01:31:16.335Z,52.50
2019-02-27T01:32:16.311Z,53.30
2019-02-27T01:33:16.306Z,53.30
2019-02-27T01:34:16.297Z,52.50
2019-02-27T01:35:18.781Z,51.40
2019-02-27T01:36:16.282Z,53.20
2019-02-27T01:37:16.262Z,54.70
2019-02-27T01:38:16.250Z,53.30
2019-02-27T01:39:16.243Z,54.40
2019-02-27T01:40:17.940Z,57.30
2019-02-27T01:41:16.208Z,56.20
2019-02-27T01:42:16.212Z,53.50
2019-02-27T01:43:16.193Z,51.30
2019-02-27T01:44:16.181Z,50.80
2019-02-27T01:45:20.596Z,52.40
2019-02-27T01:46:16.154Z,53.90
2019-02-27T01:47:16.150Z,57.40
2019-02-27T01:48:16.128Z,56.50
2019-02-27T01:49:16.792Z,55.00
2019-02-27T01:50:16.142Z,52.90
2019-02-27T01:51:16.121Z,55.40
2019-02-27T01:52:16.082Z,54.40
2019-02-27T01:53:16.080Z,53.30
2019-02-27T01:54:16.063Z,52.30
2019-02-27T01:55:16.071Z,53.50
2019-02-27T01:56:16.040Z,51.50
2019-02-27T01:57:16.020Z,53.10
2019-02-27T01:58:16.020Z,54.60
2019-02-27T01:59:16.980Z,51.90
2019-02-27T02:00:16.009Z,51.30
2019-02-27T02:01:15.982Z,50.70
2019-02-27T02:02:15.982Z,51.30
2019-02-27T02:03:15.961Z,52.20
2019-02-27T02:04:20.034Z,51.00
2019-02-27T02:05:15.949Z,54.30
2019-02-27T02:06:15.945Z,56.00
2019-02-27T02:07:15.915Z,54.70
2019-02-27T02:08:15.910Z,56.20
2019-02-27T02:09:15.920Z,54.30
2019-02-27T02:10:15.892Z,54.90
2019-02-27T02:11:15.870Z,54.10
2019-02-27T02:12:15.867Z,53.30
2019-02-27T02:13:15.897Z,51.00
2019-02-27T02:14:15.838Z,51.70
2019-02-27T02:15:15.848Z,51.30
2019-02-27T02:16:15.838Z,50.30
2019-02-27T02:17:15.818Z,53.00
2019-02-27T02:18:15.790Z,52.10
2019-02-27T02:19:15.780Z,54.40
2019-02-27T02:20:15.784Z,53.70
2019-02-27T02:21:15.785Z,50.20
2019-02-27T02:22:15.748Z,51.30
2019-02-27T02:23:15.760Z,49.60
2019-02-27T02:24:15.731Z,51.40
2019-02-27T02:25:15.728Z,53.10
2019-02-27T02:26:15.729Z,53.70
2019-02-27T02:27:15.698Z,53.40
2019-02-27T02:28:15.694Z,52.80
2019-02-27T02:29:17.869Z,54.70
2019-02-27T02:30:15.665Z,52.80
2019-02-27T02:31:15.671Z,50.30
2019-02-27T02:32:17.503Z,52.00
2019-02-27T02:33:15.630Z,52.30
2019-02-27T02:34:15.621Z,52.40
2019-02-27T02:35:16.026Z,52.40
2019-02-27T02:36:15.619Z,52.40
2019-02-27T02:37:15.592Z,53.30
2019-02-27T02:38:15.563Z,52.80
2019-02-27T02:39:19.085Z,52.40
2019-02-27T02:40:15.549Z,55.30
2019-02-27T02:41:15.552Z,55.80
2019-02-27T02:42:15.533Z,55.10
2019-02-27T02:43:15.512Z,52.30
2019-02-27T02:44:20.697Z,53.60
2019-02-27T02:45:16.493Z,56.00
2019-02-27T02:46:15.501Z,55.80
2019-02-27T02:47:19.743Z,55.60
2019-02-27T02:48:16.482Z,54.40
2019-02-27T02:49:15.471Z,51.60
2019-02-27T02:50:17.852Z,50.60
2019-02-27T02:51:15.456Z,52.80
2019-02-27T02:52:15.415Z,53.20
2019-02-27T02:53:15.403Z,53.00
2019-02-27T02:54:15.388Z,52.80
2019-02-27T02:55:15.381Z,53.00
2019-02-27T02:56:15.378Z,53.70
2019-02-27T02:57:15.389Z,54.40
2019-02-27T02:58:15.365Z,52.80
2019-02-27T02:59:15.334Z,52.70
2019-02-27T03:00:15.343Z,51.90
2019-02-27T03:01:15.472Z,49.30
2019-02-27T03:02:15.309Z,52.60
2019-02-27T03:03:15.290Z,52.80
2019-02-27T03:04:15.279Z,53.00
2019-02-27T03:05:15.266Z,52.80
2019-02-27T03:06:15.302Z,53.30
2019-02-27T03:07:15.254Z,51.60
2019-02-27T03:08:19.953Z,54.70
2019-02-27T03:09:16.218Z,52.00
2019-02-27T03:10:15.236Z,53.40
2019-02-27T03:11:19.131Z,56.60
2019-02-27T03:12:15.215Z,54.10
2019-02-27T03:13:15.179Z,53.90
2019-02-27T03:14:17.639Z,54.50
2019-02-27T03:15:15.166Z,54.50
2019-02-27T03:16:15.153Z,51.90
2019-02-27T03:17:18.248Z,52.80
2019-02-27T03:18:15.127Z,52.50
2019-02-27T03:19:15.119Z,55.60
2019-02-27T03:20:17.709Z,55.40
2019-02-27T03:21:15.099Z,52.20
2019-02-27T03:22:15.094Z,51.90
2019-02-27T03:23:15.737Z,52.40
2019-02-27T03:24:15.056Z,50.10
2019-02-27T03:25:15.046Z,54.80
2019-02-27T03:26:16.957Z,55.40
2019-02-27T03:27:15.036Z,53.90
2019-02-27T03:28:15.024Z,51.70
2019-02-27T03:29:16.802Z,52.50
2019-02-27T03:30:14.988Z,51.60
2019-02-27T03:31:18.323Z,51.90
2019-02-27T03:32:14.998Z,51.50
2019-02-27T03:33:23.339Z,52.90
2019-02-27T03:34:15.956Z,52.10
2019-02-27T03:35:14.936Z,51.60
2019-02-27T03:36:14.936Z,51.10
2019-02-27T03:37:14.934Z,51.00
2019-02-27T03:38:14.903Z,48.50
2019-02-27T03:39:14.903Z,50.10
2019-02-27T03:40:14.878Z,52.40
2019-02-27T03:41:14.882Z,51.60
2019-02-27T03:42:14.874Z,50.00
2019-02-27T03:43:14.862Z,48.90
2019-02-27T03:44:20.247Z,49.10
2019-02-27T03:45:15.837Z,52.00
2019-02-27T03:46:14.820Z,51.50
2019-02-27T03:47:16.645Z,49.90
2019-02-27T03:48:14.801Z,48.70
2019-02-27T03:49:14.794Z,49.10
2019-02-27T03:50:15.654Z,52.00
2019-02-27T03:51:14.755Z,50.30
2019-02-27T03:52:14.782Z,50.40
2019-02-27T03:53:14.757Z,48.00
2019-02-27T03:54:20.869Z,49.00
2019-02-27T03:55:15.709Z,51.30
2019-02-27T03:56:14.706Z,49.50
2019-02-27T03:57:18.970Z,52.00
2019-02-27T03:58:15.741Z,51.50
2019-02-27T03:59:14.667Z,50.30
2019-02-27T04:00:17.991Z,49.90
2019-02-27T04:01:14.699Z,51.10
2019-02-27T04:02:14.672Z,53.00
2019-02-27T04:03:18.189Z,51.40
2019-02-27T04:04:14.618Z,52.90
2019-02-27T04:05:14.613Z,52.80
2019-02-27T04:06:20.169Z,52.00
2019-02-27T04:07:15.620Z,52.40
2019-02-27T04:08:14.576Z,52.80
2019-02-27T04:09:18.557Z,53.80
2019-02-27T04:10:15.549Z,52.80
2019-02-27T04:11:14.539Z,51.70
2019-02-27T04:12:16.627Z,51.70
2019-02-27T04:13:14.515Z,51.30
2019-02-27T04:14:14.511Z,49.50
2019-02-27T04:15:17.770Z,50.20
2019-02-27T04:16:14.524Z,50.80
2019-02-27T04:17:14.542Z,52.00
2019-02-27T04:18:14.472Z,54.30
2019-02-27T04:19:14.446Z,51.70
2019-02-27T04:20:15.573Z,52.30
2019-02-27T04:21:14.429Z,50.90
2019-02-27T04:22:14.431Z,51.70
2019-02-27T04:23:14.414Z,50.80
2019-02-27T04:24:14.389Z,51.00
2019-02-27T04:25:14.394Z,51.20
2019-02-27T04:26:14.374Z,51.80
2019-02-27T04:27:20.026Z,49.90
2019-02-27T04:28:15.339Z,50.70
2019-02-27T04:29:14.334Z,49.70
2019-02-27T04:30:15.007Z,51.70
2019-02-27T04:31:14.313Z,50.10
2019-02-27T04:32:14.335Z,50.20
2019-02-27T04:33:14.306Z,50.60
2019-02-27T04:34:14.299Z,49.30
2019-02-27T04:35:14.269Z,53.30
2019-02-27T04:36:14.267Z,49.40
2019-02-27T04:37:14.259Z,51.40
2019-02-27T04:38:14.251Z,50.90
2019-02-27T04:39:14.221Z,50.60
2019-02-27T04:40:14.220Z,50.80
2019-02-27T04:41:17.826Z,51.50
2019-02-27T04:42:14.200Z,50.70
2019-02-27T04:43:14.198Z,49.80
2019-02-27T04:44:14.193Z,49.70
2019-02-27T04:45:14.163Z,50.00
2019-02-27T04:46:14.152Z,51.80
2019-02-27T04:47:14.139Z,52.20
2019-02-27T04:48:14.145Z,53.40
2019-02-27T04:49:14.130Z,49.90
2019-02-27T04:50:14.109Z,50.00
2019-02-27T04:51:16.905Z,49.00
2019-02-27T04:52:14.083Z,49.80
2019-02-27T04:53:14.125Z,49.30
2019-02-27T04:54:14.063Z,50.20
2019-02-27T04:55:15.616Z,49.70
2019-02-27T04:56:14.054Z,51.80
2019-02-27T04:57:14.050Z,51.00
2019-02-27T04:58:14.049Z,49.90
2019-02-27T04:59:18.282Z,51.10
2019-02-27T05:00:14.006Z,48.70
2019-02-27T05:01:13.995Z,50.50
2019-02-27T05:02:14.667Z,52.30
2019-02-27T05:03:13.983Z,52.70
2019-02-27T05:04:13.952Z,50.80
2019-02-27T05:05:13.952Z,51.40
2019-02-27T05:06:14.524Z,51.40
2019-02-27T05:07:13.936Z,49.60
2019-02-27T05:08:13.937Z,50.10
2019-02-27T05:09:13.903Z,49.70
2019-02-27T05:10:13.892Z,51.70
2019-02-27T05:11:14.781Z,51.60
2019-02-27T05:12:13.866Z,52.40
2019-02-27T05:13:13.874Z,50.10
2019-02-27T05:14:13.853Z,51.20
2019-02-27T05:15:13.834Z,49.80
2019-02-27T05:16:14.730Z,49.30
2019-02-27T05:17:13.824Z,50.30
2019-02-27T05:18:13.841Z,51.40
2019-02-27T05:19:15.277Z,52.40
2019-02-27T05:20:13.788Z,51.00
2019-02-27T05:21:13.767Z,51.50
2019-02-27T05:22:13.760Z,50.20
2019-02-27T05:23:13.773Z,51.90
2019-02-27T05:24:13.752Z,52.10
2019-02-27T05:25:14.472Z,52.60
2019-02-27T05:26:13.724Z,50.80
2019-02-27T05:27:13.707Z,53.50
2019-02-27T05:28:13.687Z,50.60
2019-02-27T05:29:15.751Z,50.40
2019-02-27T05:30:13.883Z,49.40
2019-02-27T05:31:17.971Z,49.80
2019-02-27T05:32:13.663Z,50.30
2019-02-27T05:33:13.652Z,49.90
2019-02-27T05:34:13.717Z,49.20
2019-02-27T05:35:13.630Z,48.10
2019-02-27T05:36:13.621Z,50.90
2019-02-27T05:37:13.593Z,51.80
2019-02-27T05:38:13.594Z,52.30
2019-02-27T05:39:17.000Z,51.90
2019-02-27T05:40:13.580Z,52.70
2019-02-27T05:41:13.609Z,50.30
2019-02-27T05:42:13.554Z,51.40
2019-02-27T05:43:14.065Z,51.30
2019-02-27T05:44:13.544Z,51.80
2019-02-27T05:45:13.506Z,50.60
2019-02-27T05:46:15.079Z,51.60
2019-02-27T05:47:13.484Z,53.50
2019-02-27T05:48:13.486Z,54.80
2019-02-27T05:49:13.490Z,53.10
2019-02-27T05:50:13.472Z,52.80
2019-02-27T05:51:13.481Z,53.10
2019-02-27T05:52:14.367Z,52.90
2019-02-27T05:53:13.430Z,51.60
2019-02-27T05:54:13.439Z,54.50
2019-02-27T05:55:13.408Z,50.50
2019-02-27T05:56:15.827Z,51.30
2019-02-27T05:57:13.381Z,50.70
2019-02-27T05:58:13.367Z,53.20
2019-02-27T05:59:13.356Z,51.20
2019-02-27T06:00:13.373Z,52.70
2019-02-27T06:01:13.346Z,51.80
2019-02-27T06:02:13.332Z,51.00
2019-02-27T06:03:13.336Z,51.80
2019-02-27T06:04:13.327Z,52.10
2019-02-27T06:05:13.314Z,51.40
2019-02-27T06:06:13.282Z,50.00
2019-02-27T06:07:13.270Z,51.90
2019-02-27T06:08:13.277Z,50.60
2019-02-27T06:09:13.264Z,49.80
2019-02-27T06:10:13.393Z,53.60
2019-02-27T06:11:13.246Z,52.20
2019-02-27T06:12:13.221Z,51.90
2019-02-27T06:13:14.198Z,49.80
2019-02-27T06:14:13.227Z,51.00
2019-02-27T06:15:13.206Z,48.40
2019-02-27T06:16:13.186Z,50.80
2019-02-27T06:17:13.568Z,49.60
2019-02-27T06:18:13.158Z,51.50
2019-02-27T06:19:13.140Z,50.40
2019-02-27T06:20:13.161Z,51.40
2019-02-27T06:21:13.378Z,51.90
2019-02-27T06:22:13.124Z,51.60
2019-02-27T06:23:13.105Z,53.20
2019-02-27T06:24:13.095Z,51.30
2019-02-27T06:25:13.106Z,51.90
2019-02-27T06:26:13.083Z,50.90
2019-02-27T06:27:13.052Z,52.40
2019-02-27T06:28:13.097Z,51.80
2019-02-27T06:29:13.039Z,51.90
2019-02-27T06:30:13.085Z,52.20
2019-02-27T06:31:13.021Z,53.10
2019-02-27T06:32:13.001Z,49.90
2019-02-27T06:33:12.990Z,51.10
2019-02-27T06:34:13.045Z,52.50
2019-02-27T06:35:12.977Z,52.30
2019-02-27T06:36:12.961Z,56.70
2019-02-27T06:37:15.362Z,53.10
2019-02-27T06:38:12.938Z,53.20
2019-02-27T06:39:12.925Z,54.10
2019-02-27T06:40:12.935Z,50.80
2019-02-27T06:41:15.436Z,52.20
2019-02-27T06:42:12.977Z,51.50
2019-02-27T06:43:12.892Z,56.20
2019-02-27T06:44:12.874Z,51.50
2019-02-27T06:45:13.307Z,53.40
2019-02-27T06:46:12.872Z,52.10
2019-02-27T06:47:12.848Z,52.60
2019-02-27T06:48:12.840Z,51.50
2019-02-27T06:49:17.277Z,53.10
2019-02-27T06:50:13.827Z,52.60
2019-02-27T06:51:12.838Z,52.30
2019-02-27T06:52:12.822Z,53.00
2019-02-27T06:53:15.601Z,52.10
2019-02-27T06:54:12.763Z,52.40
2019-02-27T06:55:13.328Z,53.20
2019-02-27T06:56:12.998Z,53.20
2019-02-27T06:57:12.733Z,54.40
2019-02-27T06:58:14.805Z,54.70
2019-02-27T06:59:12.719Z,54.20
2019-02-27T07:00:12.706Z,54.50
2019-02-27T07:01:13.224Z,54.80
2019-02-27T07:02:12.695Z,53.30
2019-02-27T07:03:12.679Z,54.90
2019-02-27T07:04:12.650Z,56.00
2019-02-27T07:05:13.577Z,54.00
2019-02-27T07:06:12.656Z,54.80
2019-02-27T07:07:12.624Z,54.50
2019-02-27T07:08:12.623Z,53.50
2019-02-27T07:09:12.595Z,55.90
2019-02-27T07:10:12.588Z,54.60
2019-02-27T07:11:12.608Z,55.50
2019-02-27T07:12:12.586Z,55.60
2019-02-27T07:13:12.575Z,54.90
2019-02-27T07:14:12.544Z,54.80
2019-02-27T07:15:12.902Z,55.40
2019-02-27T07:16:12.546Z,53.30
2019-02-27T07:17:12.511Z,52.50
2019-02-27T07:18:12.533Z,54.30
2019-02-27T07:19:13.144Z,54.40
2019-02-27T07:20:12.498Z,62.00
2019-02-27T07:21:12.514Z,57.90
2019-02-27T07:22:12.718Z,54.20
2019-02-27T07:23:12.444Z,56.00
2019-02-27T07:24:12.434Z,53.90
2019-02-27T07:25:12.424Z,54.40
2019-02-27T07:26:13.251Z,54.20
2019-02-27T07:27:12.417Z,52.90
2019-02-27T07:28:12.390Z,52.80
2019-02-27T07:29:21.140Z,53.30
2019-02-27T07:30:13.366Z,53.40
2019-02-27T07:31:12.563Z,54.00
2019-02-27T07:32:12.368Z,53.60
2019-02-27T07:33:12.350Z,54.20
2019-02-27T07:34:14.371Z,52.50
2019-02-27T07:35:12.317Z,54.00
2019-02-27T07:36:12.311Z,54.00
2019-02-27T07:37:12.916Z,55.20
2019-02-27T07:38:12.292Z,54.50
2019-02-27T07:39:12.267Z,55.30
2019-02-27T07:40:12.422Z,53.90
2019-02-27T07:41:12.250Z,51.90
2019-02-27T07:42:12.251Z,54.30
2019-02-27T07:43:12.238Z,52.90
2019-02-27T07:44:12.218Z,52.10
2019-02-27T07:45:12.242Z,49.90
2019-02-27T07:46:12.185Z,50.10
2019-02-27T07:47:12.205Z,49.10
2019-02-27T07:48:12.183Z,46.00
2019-02-27T07:49:12.152Z,44.70
2019-02-27T07:50:12.145Z,43.40
2019-02-27T07:51:12.132Z,45.20
2019-02-27T07:52:12.133Z,45.20
2019-02-27T07:53:12.107Z,45.20
2019-02-27T07:54:12.091Z,45.00
2019-02-27T07:55:19.965Z,42.90
2019-02-27T07:56:13.089Z,43.50
2019-02-27T07:57:12.099Z,43.70
2019-02-27T07:58:12.054Z,41.40
2019-02-27T07:59:12.057Z,40.80
2019-02-27T08:00:14.993Z,40.50
2019-02-27T08:01:12.025Z,39.90
2019-02-27T08:02:12.005Z,39.10
2019-02-27T08:03:13.086Z,41.00
2019-02-27T08:04:12.001Z,40.00
2019-02-27T08:05:11.985Z,38.30
2019-02-27T08:06:11.978Z,37.90
2019-02-27T08:07:12.377Z,37.40
2019-02-27T08:08:11.967Z,38.40
2019-02-27T08:09:11.951Z,37.40
2019-02-27T08:10:11.929Z,37.80
2019-02-27T08:11:13.591Z,37.80
2019-02-27T08:12:11.910Z,37.10
2019-02-27T08:13:11.912Z,36.70
2019-02-27T08:14:12.979Z,35.60
2019-02-27T08:15:13.562Z,35.10
2019-02-27T08:16:11.871Z,36.90
2019-02-27T08:17:17.606Z,35.70
2019-02-27T08:18:12.909Z,33.80
2019-02-27T08:19:12.288Z,32.90
2019-02-27T08:20:11.812Z,34.60
2019-02-27T08:21:11.796Z,35.00
2019-02-27T08:22:11.793Z,34.80
2019-02-27T08:23:11.789Z,34.60
2019-02-27T08:24:11.759Z,34.00
2019-02-27T08:25:11.753Z,34.70
2019-02-27T08:26:11.769Z,35.60
2019-02-27T08:27:11.743Z,34.40
2019-02-27T08:28:11.747Z,34.20
2019-02-27T08:29:11.723Z,34.30
2019-02-27T08:30:11.696Z,33.30
2019-02-27T08:31:11.694Z,33.50
2019-02-27T08:32:11.679Z,34.40
2019-02-27T08:33:11.662Z,33.60
2019-02-27T08:34:11.683Z,34.20
2019-02-27T08:35:11.647Z,33.80
2019-02-27T08:36:11.646Z,33.60
2019-02-27T08:37:11.625Z,33.20
2019-02-27T08:38:11.610Z,33.60
2019-02-27T08:39:11.635Z,33.40
2019-02-27T08:40:11.627Z,33.70
2019-02-27T08:41:11.581Z,34.60
2019-02-27T08:42:11.575Z,34.30
2019-02-27T08:43:11.569Z,34.80
2019-02-27T08:44:12.293Z,33.70
2019-02-27T08:45:19.268Z,34.30
2019-02-27T08:46:12.520Z,32.40
2019-02-27T08:47:11.510Z,32.40
2019-02-27T08:48:11.529Z,32.60
2019-02-27T08:49:11.508Z,33.40
2019-02-27T08:50:11.482Z,32.60
2019-02-27T08:51:11.485Z,33.20
2019-02-27T08:52:15.257Z,31.40
2019-02-27T08:53:11.439Z,32.60
2019-02-27T08:54:11.462Z,32.60
2019-02-27T08:55:18.582Z,33.10
2019-02-27T08:56:12.964Z,33.00
2019-02-27T08:57:11.408Z,32.00
2019-02-27T08:58:11.396Z,32.00
2019-02-27T08:59:11.388Z,32.60
2019-02-27T09:00:14.172Z,32.00
2019-02-27T09:01:11.356Z,32.40
2019-02-27T09:02:11.355Z,33.10
2019-02-27T09:03:19.964Z,31.40
2019-02-27T09:04:12.432Z,31.60
2019-02-27T09:05:11.320Z,33.10
2019-02-27T09:06:11.302Z,33.40
2019-02-27T09:07:11.286Z,32.90
2019-02-27T09:08:11.291Z,32.80
2019-02-27T09:09:11.288Z,32.00
2019-02-27T09:10:11.265Z,32.70
2019-02-27T09:11:11.254Z,33.30
2019-02-27T09:12:13.388Z,32.60
2019-02-27T09:13:11.227Z,33.30
2019-02-27T09:14:12.049Z,33.70
2019-02-27T09:15:11.209Z,32.50
2019-02-27T09:16:11.190Z,32.90
2019-02-27T09:17:11.188Z,32.30
2019-02-27T09:18:11.179Z,32.30
2019-02-27T09:20:12.148Z,32.80
2019-02-27T09:21:11.146Z,32.20
2019-02-27T09:22:11.130Z,33.20
2019-02-27T09:23:11.103Z,32.90
2019-02-27T09:24:11.120Z,33.10
2019-02-27T09:25:11.089Z,32.00
2019-02-27T09:26:11.077Z,33.30
2019-02-27T09:27:11.078Z,33.30
2019-02-27T09:28:11.066Z,32.40
2019-02-27T09:29:11.045Z,32.30
2019-02-27T09:30:11.056Z,32.00
2019-02-27T09:31:12.175Z,32.60
2019-02-27T09:32:11.665Z,32.60
2019-02-27T09:33:11.011Z,31.90
2019-02-27T09:34:11.024Z,32.30
2019-02-27T09:35:11.031Z,32.10
2019-02-27T09:36:11.051Z,32.20
2019-02-27T09:37:10.976Z,31.80
2019-02-27T09:38:10.954Z,31.90
2019-02-27T09:39:10.947Z,32.80
2019-02-27T09:40:10.943Z,31.90
2019-02-27T09:41:12.409Z,31.90
2019-02-27T09:42:10.908Z,31.10
2019-02-27T09:43:11.746Z,32.00
2019-02-27T09:44:10.887Z,30.80
2019-02-27T09:45:11.131Z,31.00
2019-02-27T09:46:10.861Z,31.50
2019-02-27T09:47:10.871Z,30.50
2019-02-27T09:48:10.835Z,30.30
2019-02-27T09:49:10.835Z,30.20
2019-02-27T09:50:11.887Z,31.00
2019-02-27T09:51:10.800Z,30.40
2019-02-27T09:52:10.789Z,31.60
2019-02-27T09:53:10.804Z,29.80
2019-02-27T09:54:10.969Z,27.20
2019-02-27T09:55:10.764Z,28.40
2019-02-27T09:56:11.626Z,29.00
2019-02-27T09:57:10.751Z,28.50
2019-02-27T09:58:11.475Z,29.60
2019-02-27T09:59:10.715Z,28.30
2019-02-27T10:00:10.732Z,26.70
2019-02-27T10:01:10.697Z,26.90
2019-02-27T10:02:12.518Z,27.90
2019-02-27T10:03:10.668Z,27.10
2019-02-27T10:04:10.660Z,26.60
2019-02-27T10:05:12.431Z,26.80
2019-02-27T10:06:10.639Z,27.40
2019-02-27T10:07:10.644Z,25.70
2019-02-27T10:08:10.614Z,25.40
2019-02-27T10:09:10.602Z,25.40
2019-02-27T10:10:11.008Z,25.20
2019-02-27T10:11:10.586Z,27.10
2019-02-27T10:12:10.576Z,27.40
2019-02-27T10:13:10.563Z,27.30
2019-02-27T10:14:10.548Z,26.20
2019-02-27T10:15:10.613Z,27.20
2019-02-27T10:16:10.528Z,27.10
2019-02-27T10:17:10.537Z,26.70
2019-02-27T10:18:10.499Z,26.40
2019-02-27T10:19:10.494Z,26.00
2019-02-27T10:20:10.516Z,26.20
2019-02-27T10:21:12.042Z,26.50
2019-02-27T10:22:10.492Z,26.80
2019-02-27T10:23:10.462Z,26.20
2019-02-27T10:24:10.436Z,24.00
2019-02-27T10:25:10.448Z,25.20
2019-02-27T10:26:10.418Z,26.70
2019-02-27T10:27:10.412Z,24.90
2019-02-27T10:28:10.758Z,23.60
2019-02-27T10:29:10.955Z,23.40
2019-02-27T10:30:11.740Z,25.00
2019-02-27T10:31:10.367Z,24.30
2019-02-27T10:32:10.350Z,24.40
2019-02-27T10:33:11.150Z,24.10
2019-02-27T10:34:10.330Z,24.00
2019-02-27T10:35:10.333Z,23.50
2019-02-27T10:36:10.768Z,24.00
2019-02-27T10:37:12.899Z,23.80
2019-02-27T10:38:10.294Z,24.50
2019-02-27T10:39:10.307Z,24.90
2019-02-27T10:40:11.461Z,25.10
2019-02-27T10:41:10.250Z,25.40
2019-02-27T10:42:10.257Z,26.10
2019-02-27T10:43:10.247Z,24.10
2019-02-27T10:44:10.230Z,24.10
2019-02-27T10:45:10.711Z,24.40
2019-02-27T10:46:10.204Z,24.60
2019-02-27T10:47:10.181Z,24.50
2019-02-27T10:48:12.570Z,24.00
2019-02-27T10:49:10.154Z,23.30
2019-02-27T10:50:10.143Z,23.10
2019-02-27T10:51:10.226Z,23.80
2019-02-27T10:52:10.141Z,22.30
2019-02-27T10:53:10.112Z,22.80
2019-02-27T10:54:10.100Z,22.80
2019-02-27T10:55:11.368Z,23.20
2019-02-27T10:56:10.092Z,21.80
2019-02-27T10:57:10.069Z,21.10
2019-02-27T10:58:13.011Z,21.00
2019-02-27T10:59:10.060Z,21.10
2019-02-27T11:00:10.044Z,21.70
2019-02-27T11:01:10.051Z,22.40
2019-02-27T11:02:12.503Z,22.30
2019-02-27T11:03:10.004Z,22.90
2019-02-27T11:04:09.989Z,22.20
2019-02-27T11:05:10.004Z,22.90
2019-02-27T11:06:09.980Z,23.80
2019-02-27T11:07:10.019Z,22.40
2019-02-27T11:08:09.960Z,23.00
2019-02-27T11:09:09.932Z,22.50
2019-02-27T11:10:09.927Z,20.30
2019-02-27T11:11:09.918Z,21.10
2019-02-27T11:12:09.922Z,20.30
2019-02-27T11:13:09.887Z,19.90
2019-02-27T11:14:09.876Z,20.60
2019-02-27T11:15:09.870Z,20.10
2019-02-27T11:16:09.862Z,19.30
2019-02-27T11:17:09.890Z,20.10
2019-02-27T11:18:09.848Z,19.70
2019-02-27T11:19:09.830Z,18.90
2019-02-27T11:20:09.815Z,19.30
2019-02-27T11:21:09.805Z,20.30
2019-02-27T11:22:09.807Z,20.10
2019-02-27T11:23:09.787Z,20.40
2019-02-27T11:24:09.776Z,21.30
2019-02-27T11:25:09.764Z,21.80
2019-02-27T11:26:09.814Z,21.60
2019-02-27T11:27:09.762Z,21.10
2019-02-27T11:28:09.727Z,21.20
2019-02-27T11:29:09.727Z,20.60
2019-02-27T11:30:09.699Z,20.70
2019-02-27T11:31:10.962Z,21.20
2019-02-27T11:32:09.703Z,19.80
2019-02-27T11:33:09.662Z,20.40
2019-02-27T11:34:09.665Z,21.40
2019-02-27T11:35:09.644Z,21.50
2019-02-27T11:36:09.630Z,20.60
2019-02-27T11:37:12.875Z,19.20
2019-02-27T11:38:09.653Z,19.10
2019-02-27T11:39:09.600Z,19.20
2019-02-27T11:40:09.596Z,19.80
2019-02-27T11:41:09.590Z,20.10
2019-02-27T11:42:09.569Z,16.80
2019-02-27T11:43:09.582Z,18.40
2019-02-27T11:44:14.152Z,17.00
2019-02-27T11:45:09.541Z,16.60
2019-02-27T11:46:09.533Z,16.10
2019-02-27T11:47:11.370Z,15.50
2019-02-27T11:48:09.525Z,16.30
2019-02-27T11:49:09.503Z,16.80
2019-02-27T11:50:09.486Z,16.20
2019-02-27T11:51:09.470Z,16.60
2019-02-27T11:52:09.453Z,16.80
2019-02-27T11:53:09.475Z,17.00
2019-02-27T11:54:09.439Z,17.40
2019-02-27T11:55:09.417Z,16.90
2019-02-27T11:56:09.426Z,15.80
2019-02-27T11:57:09.403Z,16.10
2019-02-27T11:58:09.411Z,15.60
2019-02-27T11:59:12.552Z,15.80
2019-02-27T12:00:09.374Z,17.00
2019-02-27T12:01:09.352Z,16.40
2019-02-27T12:02:09.359Z,17.20
2019-02-27T12:03:11.063Z,17.20
2019-02-27T12:04:09.333Z,17.90
2019-02-27T12:05:09.323Z,16.90
2019-02-27T12:06:09.293Z,16.60
2019-02-27T12:07:09.304Z,15.50
2019-02-27T12:08:11.323Z,16.30
2019-02-27T12:09:09.277Z,16.60
2019-02-27T12:10:09.621Z,15.80
2019-02-27T12:11:09.714Z,16.90
2019-02-27T12:12:10.474Z,15.60
2019-02-27T12:13:09.234Z,15.90
2019-02-27T12:14:09.740Z,16.10
2019-02-27T12:15:09.787Z,16.40
2019-02-27T12:16:10.647Z,17.30
2019-02-27T12:17:09.187Z,16.50
2019-02-27T12:18:09.171Z,16.80
2019-02-27T12:19:09.512Z,17.60
2019-02-27T12:20:09.147Z,17.10
2019-02-27T12:21:09.142Z,17.00
2019-02-27T12:22:09.157Z,16.30
2019-02-27T12:23:10.105Z,14.70
2019-02-27T12:24:09.124Z,14.20
2019-02-27T12:25:09.099Z,15.30
2019-02-27T12:26:09.070Z,15.10
2019-02-27T12:27:11.845Z,15.30
2019-02-27T12:28:10.090Z,15.10
2019-02-27T12:29:09.059Z,14.50
2019-02-27T12:30:09.057Z,14.50
2019-02-27T12:31:11.068Z,14.70
2019-02-27T12:32:09.009Z,14.60
2019-02-27T12:33:09.009Z,14.40
2019-02-27T12:34:09.023Z,14.30
2019-02-27T12:35:10.877Z,14.60
2019-02-27T12:36:09.065Z,14.10
2019-02-27T12:37:19.144Z,15.30
2019-02-27T12:38:11.403Z,14.90
2019-02-27T12:39:08.924Z,14.50
2019-02-27T12:40:08.937Z,14.70
2019-02-27T12:41:08.911Z,15.30
2019-02-27T12:42:08.903Z,14.00
2019-02-27T12:43:08.886Z,14.90
2019-02-27T12:44:08.889Z,14.50
2019-02-27T12:45:08.881Z,15.00
2019-02-27T12:46:09.746Z,15.30
2019-02-27T12:47:08.846Z,15.50
2019-02-27T12:48:08.836Z,15.80
2019-02-27T12:49:08.902Z,15.70
2019-02-27T12:50:08.832Z,14.70
2019-02-27T12:51:08.814Z,14.60
2019-02-27T12:52:09.036Z,14.30
2019-02-27T12:53:08.785Z,14.10